sensor_id;sensor_type;location;lat;lon;timestamp;pressure;altitude;pressure_sealevel;temperature;humidity
23164;BME280;31429;42.674;23.350;2023-04-20T00:00:35;94412.97;;;9.51;100.00
23164;BME280;31429;42.674;23.350;2023-04-20T00:01:36;94417.63;;;9.42;100.00
23164;BME280;31429;42.674;23.350;2023-04-20T00:02:37;94416.78;;;9.41;100.00
23164;BME280;31429;42.674;23.350;2023-04-20T00:03:37;94418.16;;;9.50;100.00
23164;BME280;31429;42.674;23.350;2023-04-20T00:04:38;94415.25;;;9.59;100.00
23164;BME280;31429;42.674;23.350;2023-04-20T00:05:40;94413.75;;;9.53;100.00
23164;BME280;31429;42.674;23.350;2023-04-20T00:06:41;94414.03;;;9.46;100.00
23164;BME280;31429;42.674;23.350;2023-04-20T00:07:43;94414.56;;;9.54;100.00
23164;BME280;31429;42.674;23.350;2023-04-20T00:08:43;94412.00;;;9.54;100.00
23164;BME280;31429;42.674;23.350;2023-04-20T00:09:44;94410.31;;;9.54;100.00
23164;BME280;31429;42.674;23.350;2023-04-20T00:10:45;94412.63;;;9.60;100.00
23164;BME280;31429;42.674;23.350;2023-04-20T00:11:46;94418.66;;;9.58;100.00
23164;BME280;31429;42.674;23.350;2023-04-20T00:12:46;94409.41;;;9.55;100.00
23164;BME280;31429;42.674;23.350;2023-04-20T00:13:47;94398.38;;;9.55;100.00
23164;BME280;31429;42.674;23.350;2023-04-20T00:14:48;94401.41;;;9.43;100.00
23164;BME280;31429;42.674;23.350;2023-04-20T00:15:48;94409.06;;;9.43;100.00
23164;BME280;31429;42.674;23.350;2023-04-20T00:16:49;94407.97;;;9.48;100.00
23164;BME280;31429;42.674;23.350;2023-04-20T00:17:49;94405.50;;;9.47;100.00
23164;BME280;31429;42.674;23.350;2023-04-20T00:18:50;94408.06;;;9.47;100.00
23164;BME280;31429;42.674;23.350;2023-04-20T00:19:51;94409.66;;;9.49;100.00
23164;BME280;31429;42.674;23.350;2023-04-20T00:20:53;94402.06;;;9.48;100.00
23164;BME280;31429;42.674;23.350;2023-04-20T00:21:54;94402.72;;;9.53;100.00
23164;BME280;31429;42.674;23.350;2023-04-20T00:22:54;94400.16;;;9.53;100.00
23164;BME280;31429;42.674;23.350;2023-04-20T00:23:55;94406.16;;;9.52;100.00
23164;BME280;31429;42.674;23.350;2023-04-20T00:24:56;94404.44;;;9.52;100.00
23164;BME280;31429;42.674;23.350;2023-04-20T00:25:57;94405.91;;;9.58;100.00
23164;BME280;31429;42.674;23.350;2023-04-20T00:26:57;94403.59;;;9.52;100.00
23164;BME280;31429;42.674;23.350;2023-04-20T00:27:59;94400.34;;;9.48;100.00
23164;BME280;31429;42.674;23.350;2023-04-20T00:28:59;94402.00;;;9.49;100.00
23164;BME280;31429;42.674;23.350;2023-04-20T00:30:00;94403.59;;;9.52;100.00
23164;BME280;31429;42.674;23.350;2023-04-20T00:31:01;94402.84;;;9.50;100.00
23164;BME280;31429;42.674;23.350;2023-04-20T00:32:01;94399.44;;;9.49;100.00
23164;BME280;31429;42.674;23.350;2023-04-20T00:33:02;94408.00;;;9.70;100.00
23164;BME280;31429;42.674;23.350;2023-04-20T00:34:03;94405.72;;;9.62;100.00
23164;BME280;31429;42.674;23.350;2023-04-20T00:35:05;94401.56;;;9.60;100.00
23164;BME280;31429;42.674;23.350;2023-04-20T00:36:08;94405.59;;;9.65;100.00
23164;BME280;31429;42.674;23.350;2023-04-20T00:37:08;94402.94;;;9.68;100.00
23164;BME280;31429;42.674;23.350;2023-04-20T00:38:09;94399.41;;;9.71;100.00
23164;BME280;31429;42.674;23.350;2023-04-20T00:39:10;94398.06;;;9.62;100.00
23164;BME280;31429;42.674;23.350;2023-04-20T00:40:11;94400.16;;;9.53;100.00
23164;BME280;31429;42.674;23.350;2023-04-20T00:41:11;94400.97;;;9.75;100.00
23164;BME280;31429;42.674;23.350;2023-04-20T00:42:12;94400.44;;;9.67;100.00
23164;BME280;31429;42.674;23.350;2023-04-20T00:43:13;94400.81;;;9.58;100.00
23164;BME280;31429;42.674;23.350;2023-04-20T00:44:15;94398.63;;;9.49;100.00
23164;BME280;31429;42.674;23.350;2023-04-20T00:45:15;94391.72;;;9.51;100.00
23164;BME280;31429;42.674;23.350;2023-04-20T00:46:16;94406.66;;;9.60;100.00
23164;BME280;31429;42.674;23.350;2023-04-20T00:47:17;94395.91;;;9.53;100.00
23164;BME280;31429;42.674;23.350;2023-04-20T00:48:18;94400.63;;;9.62;100.00
23164;BME280;31429;42.674;23.350;2023-04-20T00:49:19;94395.09;;;9.51;100.00
23164;BME280;31429;42.674;23.350;2023-04-20T00:50:19;94397.31;;;9.60;100.00
23164;BME280;31429;42.674;23.350;2023-04-20T00:51:22;94397.31;;;9.60;100.00
23164;BME280;31429;42.674;23.350;2023-04-20T00:52:23;94392.50;;;9.53;100.00
23164;BME280;31429;42.674;23.350;2023-04-20T00:53:23;94397.78;;;9.48;100.00
23164;BME280;31429;42.674;23.350;2023-04-20T00:54:25;94402.75;;;9.51;100.00
23164;BME280;31429;42.674;23.350;2023-04-20T00:55:26;94389.38;;;9.46;100.00
23164;BME280;31429;42.674;23.350;2023-04-20T00:56:27;94398.84;;;9.64;100.00
23164;BME280;31429;42.674;23.350;2023-04-20T00:57:28;94397.84;;;9.89;100.00
23164;BME280;31429;42.674;23.350;2023-04-20T00:58:30;94400.34;;;9.90;100.00
23164;BME280;31429;42.674;23.350;2023-04-20T00:59:31;94405.19;;;9.76;100.00
23164;BME280;31429;42.674;23.350;2023-04-20T01:00:32;94395.63;;;9.81;100.00
23164;BME280;31429;42.674;23.350;2023-04-20T01:01:33;94408.28;;;10.04;100.00
23164;BME280;31429;42.674;23.350;2023-04-20T01:02:34;94395.44;;;10.06;100.00
23164;BME280;31429;42.674;23.350;2023-04-20T01:03:35;94404.19;;;10.00;100.00
23164;BME280;31429;42.674;23.350;2023-04-20T01:04:36;94404.09;;;10.23;100.00
23164;BME280;31429;42.674;23.350;2023-04-20T01:05:36;94403.13;;;10.26;100.00
23164;BME280;31429;42.674;23.350;2023-04-20T01:06:39;94403.88;;;10.48;100.00
23164;BME280;31429;42.674;23.350;2023-04-20T01:07:40;94404.56;;;10.13;100.00
23164;BME280;31429;42.674;23.350;2023-04-20T01:08:45;94402.81;;;10.13;100.00
23164;BME280;31429;42.674;23.350;2023-04-20T01:09:46;94403.00;;;10.29;100.00
23164;BME280;31429;42.674;23.350;2023-04-20T01:10:47;94399.88;;;10.22;100.00
23164;BME280;31429;42.674;23.350;2023-04-20T01:11:48;94400.97;;;10.17;100.00
23164;BME280;31429;42.674;23.350;2023-04-20T01:12:48;94392.31;;;10.39;100.00
23164;BME280;31429;42.674;23.350;2023-04-20T01:13:49;94396.56;;;10.20;100.00
23164;BME280;31429;42.674;23.350;2023-04-20T01:14:50;94402.34;;;10.04;100.00
23164;BME280;31429;42.674;23.350;2023-04-20T01:15:50;94402.84;;;10.12;100.00
23164;BME280;31429;42.674;23.350;2023-04-20T01:16:51;94400.78;;;10.00;100.00
23164;BME280;31429;42.674;23.350;2023-04-20T01:17:52;94409.66;;;9.91;100.00
23164;BME280;31429;42.674;23.350;2023-04-20T01:18:52;94399.84;;;10.02;100.00
23164;BME280;31429;42.674;23.350;2023-04-20T01:19:53;94405.41;;;10.12;100.00
23164;BME280;31429;42.674;23.350;2023-04-20T01:20:54;94407.28;;;10.28;100.00
23164;BME280;31429;42.674;23.350;2023-04-20T01:21:56;94404.69;;;10.30;100.00
23164;BME280;31429;42.674;23.350;2023-04-20T01:22:58;94402.78;;;9.93;100.00
23164;BME280;31429;42.674;23.350;2023-04-20T01:23:58;94407.06;;;9.93;100.00
23164;BME280;31429;42.674;23.350;2023-04-20T01:24:59;94401.63;;;10.00;100.00
23164;BME280;31429;42.674;23.350;2023-04-20T01:25:59;94404.22;;;10.20;100.00
23164;BME280;31429;42.674;23.350;2023-04-20T01:27:00;94402.53;;;10.19;100.00
23164;BME280;31429;42.674;23.350;2023-04-20T01:28:01;94398.00;;;10.06;100.00
23164;BME280;31429;42.674;23.350;2023-04-20T01:29:04;94395.19;;;10.12;100.00
23164;BME280;31429;42.674;23.350;2023-04-20T01:30:05;94405.06;;;10.21;100.00
23164;BME280;31429;42.674;23.350;2023-04-20T01:31:08;94403.47;;;10.18;100.00
23164;BME280;31429;42.674;23.350;2023-04-20T01:32:09;94399.19;;;9.97;100.00
23164;BME280;31429;42.674;23.350;2023-04-20T01:33:10;94398.72;;;9.88;100.00
23164;BME280;31429;42.674;23.350;2023-04-20T01:34:10;94397.25;;;9.82;100.00
23164;BME280;31429;42.674;23.350;2023-04-20T01:35:12;94400.34;;;9.90;100.00
23164;BME280;31429;42.674;23.350;2023-04-20T01:36:12;94396.34;;;9.85;100.00
23164;BME280;31429;42.674;23.350;2023-04-20T01:37:13;94394.97;;;9.96;100.00
23164;BME280;31429;42.674;23.350;2023-04-20T01:38:18;94393.72;;;10.06;100.00
23164;BME280;31429;42.674;23.350;2023-04-20T01:39:18;94400.91;;;9.97;100.00
23164;BME280;31429;42.674;23.350;2023-04-20T01:40:19;94392.69;;;10.10;100.00
23164;BME280;31429;42.674;23.350;2023-04-20T01:41:20;94383.84;;;9.99;100.00
23164;BME280;31429;42.674;23.350;2023-04-20T01:42:21;94390.91;;;9.92;100.00
23164;BME280;31429;42.674;23.350;2023-04-20T01:43:22;94386.63;;;9.93;100.00
23164;BME280;31429;42.674;23.350;2023-04-20T01:44:22;94391.66;;;9.94;100.00
23164;BME280;31429;42.674;23.350;2023-04-20T01:45:23;94390.66;;;9.98;100.00
23164;BME280;31429;42.674;23.350;2023-04-20T01:46:24;94388.47;;;9.89;100.00
23164;BME280;31429;42.674;23.350;2023-04-20T01:47:24;94387.97;;;9.81;100.00
23164;BME280;31429;42.674;23.350;2023-04-20T01:48:25;94375.84;;;9.86;100.00
23164;BME280;31429;42.674;23.350;2023-04-20T01:49:26;94381.91;;;9.83;100.00
23164;BME280;31429;42.674;23.350;2023-04-20T01:50:26;94382.34;;;9.73;100.00
23164;BME280;31429;42.674;23.350;2023-04-20T01:51:27;94378.72;;;9.78;100.00
23164;BME280;31429;42.674;23.350;2023-04-20T01:52:27;94375.31;;;9.78;100.00
23164;BME280;31429;42.674;23.350;2023-04-20T01:53:29;94386.66;;;9.71;100.00
23164;BME280;31429;42.674;23.350;2023-04-20T01:54:30;94381.16;;;9.60;100.00
23164;BME280;31429;42.674;23.350;2023-04-20T01:55:31;94382.00;;;9.60;100.00
23164;BME280;31429;42.674;23.350;2023-04-20T01:56:31;94379.44;;;9.60;100.00
23164;BME280;31429;42.674;23.350;2023-04-20T01:57:32;94380.41;;;9.58;100.00
23164;BME280;31429;42.674;23.350;2023-04-20T01:58:33;94378.03;;;9.53;100.00
23164;BME280;31429;42.674;23.350;2023-04-20T01:59:33;94382.88;;;9.59;100.00
23164;BME280;31429;42.674;23.350;2023-04-20T02:00:34;94378.44;;;9.64;100.00
23164;BME280;31429;42.674;23.350;2023-04-20T02:01:35;94378.91;;;9.52;100.00
23164;BME280;31429;42.674;23.350;2023-04-20T02:02:36;94370.09;;;9.39;100.00
23164;BME280;31429;42.674;23.350;2023-04-20T02:03:36;94374.16;;;9.43;100.00
23164;BME280;31429;42.674;23.350;2023-04-20T02:04:37;94373.53;;;9.38;100.00
23164;BME280;31429;42.674;23.350;2023-04-20T02:05:38;94380.09;;;9.44;100.00
23164;BME280;31429;42.674;23.350;2023-04-20T02:06:38;94371.63;;;9.43;100.00
23164;BME280;31429;42.674;23.350;2023-04-20T02:07:39;94371.69;;;9.42;100.00
23164;BME280;31429;42.674;23.350;2023-04-20T02:08:41;94366.75;;;9.37;100.00
23164;BME280;31429;42.674;23.350;2023-04-20T02:09:42;94362.50;;;9.38;100.00
23164;BME280;31429;42.674;23.350;2023-04-20T02:10:42;94368.75;;;9.31;100.00
23164;BME280;31429;42.674;23.350;2023-04-20T02:11:43;94365.28;;;9.32;100.00
23164;BME280;31429;42.674;23.350;2023-04-20T02:12:44;94367.19;;;9.27;100.00
23164;BME280;31429;42.674;23.350;2023-04-20T02:13:44;94371.41;;;9.28;100.00
23164;BME280;31429;42.674;23.350;2023-04-20T02:14:45;94380.16;;;9.20;100.00
23164;BME280;31429;42.674;23.350;2023-04-20T02:15:46;94366.78;;;9.15;100.00
23164;BME280;31429;42.674;23.350;2023-04-20T02:16:46;94379.63;;;9.12;100.00
23164;BME280;31429;42.674;23.350;2023-04-20T02:17:47;94374.53;;;9.12;100.00
23164;BME280;31429;42.674;23.350;2023-04-20T02:18:51;94367.38;;;9.22;100.00
23164;BME280;31429;42.674;23.350;2023-04-20T02:19:52;94372.34;;;9.25;100.00
23164;BME280;31429;42.674;23.350;2023-04-20T02:20:52;94370.69;;;9.24;100.00
23164;BME280;31429;42.674;23.350;2023-04-20T02:21:53;94367.19;;;9.27;100.00
23164;BME280;31429;42.674;23.350;2023-04-20T02:22:54;94371.78;;;9.17;100.00
23164;BME280;31429;42.674;23.350;2023-04-20T02:23:56;94369.31;;;9.15;100.00
23164;BME280;31429;42.674;23.350;2023-04-20T02:24:56;94373.78;;;9.10;100.00
23164;BME280;31429;42.674;23.350;2023-04-20T02:25:57;94378.81;;;9.12;100.00
23164;BME280;31429;42.674;23.350;2023-04-20T02:26:57;94372.63;;;9.17;100.00
23164;BME280;31429;42.674;23.350;2023-04-20T02:27:58;94372.63;;;9.17;100.00
23164;BME280;31429;42.674;23.350;2023-04-20T02:28:59;94375.03;;;9.22;100.00
23164;BME280;31429;42.674;23.350;2023-04-20T02:29:59;94374.31;;;9.18;100.00
23164;BME280;31429;42.674;23.350;2023-04-20T02:31:00;94371.34;;;9.29;100.00
23164;BME280;31429;42.674;23.350;2023-04-20T02:32:01;94380.31;;;9.39;100.00
23164;BME280;31429;42.674;23.350;2023-04-20T02:33:01;94374.59;;;9.33;100.00
23164;BME280;31429;42.674;23.350;2023-04-20T02:34:02;94378.50;;;9.19;100.00
23164;BME280;31429;42.674;23.350;2023-04-20T02:35:05;94375.84;;;9.22;100.00
23164;BME280;31429;42.674;23.350;2023-04-20T02:36:06;94377.47;;;9.45;100.00
23164;BME280;31429;42.674;23.350;2023-04-20T02:37:07;94371.94;;;9.36;100.00
23164;BME280;31429;42.674;23.350;2023-04-20T02:38:08;94380.59;;;9.32;100.00
23164;BME280;31429;42.674;23.350;2023-04-20T02:39:10;94372.88;;;9.33;100.00
23164;BME280;31429;42.674;23.350;2023-04-20T02:40:11;94380.47;;;9.35;100.00
23164;BME280;31429;42.674;23.350;2023-04-20T02:41:12;94385.34;;;9.41;100.00
23164;BME280;31429;42.674;23.350;2023-04-20T02:42:13;94381.78;;;9.45;100.00
23164;BME280;31429;42.674;23.350;2023-04-20T02:43:13;94382.09;;;9.57;100.00
23164;BME280;31429;42.674;23.350;2023-04-20T02:44:14;94390.59;;;9.58;100.00
23164;BME280;31429;42.674;23.350;2023-04-20T02:45:15;94384.19;;;9.90;100.00
23164;BME280;31429;42.674;23.350;2023-04-20T02:46:16;94380.50;;;9.97;100.00
23164;BME280;31429;42.674;23.350;2023-04-20T02:47:17;94390.75;;;9.75;100.00
23164;BME280;31429;42.674;23.350;2023-04-20T02:48:18;94388.31;;;9.72;100.00
23164;BME280;31429;42.674;23.350;2023-04-20T02:49:18;94392.38;;;9.56;100.00
23164;BME280;31429;42.674;23.350;2023-04-20T02:50:19;94390.72;;;9.55;100.00
23164;BME280;31429;42.674;23.350;2023-04-20T02:51:20;94382.53;;;9.47;100.00
23164;BME280;31429;42.674;23.350;2023-04-20T02:52:20;94379.59;;;9.36;100.00
23164;BME280;31429;42.674;23.350;2023-04-20T02:53:21;94384.72;;;9.34;100.00
23164;BME280;31429;42.674;23.350;2023-04-20T02:54:23;94387.97;;;9.39;100.00
23164;BME280;31429;42.674;23.350;2023-04-20T02:55:24;94382.84;;;9.39;100.00
23164;BME280;31429;42.674;23.350;2023-04-20T02:56:24;94380.75;;;9.49;100.00
23164;BME280;31429;42.674;23.350;2023-04-20T02:57:25;94385.09;;;9.47;100.00
23164;BME280;31429;42.674;23.350;2023-04-20T02:58:26;94384.34;;;9.45;100.00
23164;BME280;31429;42.674;23.350;2023-04-20T02:59:26;94382.66;;;9.44;100.00
23164;BME280;31429;42.674;23.350;2023-04-20T03:00:27;94377.38;;;9.48;100.00
23164;BME280;31429;42.674;23.350;2023-04-20T03:01:28;94386.75;;;9.48;100.00
23164;BME280;31429;42.674;23.350;2023-04-20T03:02:28;94379.22;;;9.45;100.00
23164;BME280;31429;42.674;23.350;2023-04-20T03:03:29;94378.44;;;9.43;100.00
23164;BME280;31429;42.674;23.350;2023-04-20T03:04:30;94381.78;;;9.45;100.00
23164;BME280;31429;42.674;23.350;2023-04-20T03:05:31;94376.91;;;9.39;100.00
23164;BME280;31429;42.674;23.350;2023-04-20T03:06:33;94379.41;;;9.40;100.00
23164;BME280;31429;42.674;23.350;2023-04-20T03:07:35;94378.56;;;9.61;100.00
23164;BME280;31429;42.674;23.350;2023-04-20T03:08:36;94376.50;;;9.49;100.00
23164;BME280;31429;42.674;23.350;2023-04-20T03:09:38;94385.09;;;9.47;100.00
23164;BME280;31429;42.674;23.350;2023-04-20T03:10:39;94379.34;;;9.42;100.00
23164;BME280;31429;42.674;23.350;2023-04-20T03:11:39;94374.69;;;9.51;100.00
23164;BME280;31429;42.674;23.350;2023-04-20T03:12:40;94375.13;;;9.41;100.00
23164;BME280;31429;42.674;23.350;2023-04-20T03:13:41;94375.25;;;9.38;100.00
23164;BME280;31429;42.674;23.350;2023-04-20T03:14:41;94376.28;;;9.34;100.00
23164;BME280;31429;42.674;23.350;2023-04-20T03:15:42;94383.97;;;9.32;100.00
23164;BME280;31429;42.674;23.350;2023-04-20T03:16:43;94379.63;;;9.34;100.00
23164;BME280;31429;42.674;23.350;2023-04-20T03:17:44;94373.00;;;9.30;100.00
23164;BME280;31429;42.674;23.350;2023-04-20T03:18:46;94373.34;;;9.21;100.00
23164;BME280;31429;42.674;23.350;2023-04-20T03:19:46;94376.56;;;9.48;100.00
23164;BME280;31429;42.674;23.350;2023-04-20T03:20:47;94376.50;;;9.49;100.00
23164;BME280;31429;42.674;23.350;2023-04-20T03:21:48;94379.22;;;9.45;100.00
23164;BME280;31429;42.674;23.350;2023-04-20T03:22:48;94378.56;;;9.40;100.00
23164;BME280;31429;42.674;23.350;2023-04-20T03:23:49;94369.44;;;9.34;100.00
23164;BME280;31429;42.674;23.350;2023-04-20T03:24:51;94371.28;;;9.31;100.00
23164;BME280;31429;42.674;23.350;2023-04-20T03:25:52;94374.06;;;9.24;100.00
23164;BME280;31429;42.674;23.350;2023-04-20T03:26:53;94374.53;;;9.34;100.00
23164;BME280;31429;42.674;23.350;2023-04-20T03:27:53;94368.47;;;9.37;100.00
23164;BME280;31429;42.674;23.350;2023-04-20T03:28:54;94377.19;;;9.31;100.00
23164;BME280;31429;42.674;23.350;2023-04-20T03:29:55;94380.06;;;9.23;100.00
23164;BME280;31429;42.674;23.350;2023-04-20T03:30:55;94380.81;;;9.25;100.00
23164;BME280;31429;42.674;23.350;2023-04-20T03:31:56;94383.31;;;9.27;100.00
23164;BME280;31429;42.674;23.350;2023-04-20T03:32:57;94375.66;;;9.27;100.00
23164;BME280;31429;42.674;23.350;2023-04-20T03:33:57;94383.97;;;9.32;100.00
23164;BME280;31429;42.674;23.350;2023-04-20T03:34:58;94383.38;;;9.25;100.00
23164;BME280;31429;42.674;23.350;2023-04-20T03:35:58;94378.94;;;9.31;100.00
23164;BME280;31429;42.674;23.350;2023-04-20T03:36:59;94381.03;;;9.63;100.00
23164;BME280;31429;42.674;23.350;2023-04-20T03:38:00;94376.88;;;9.60;100.00
23164;BME280;31429;42.674;23.350;2023-04-20T03:39:01;94380.75;;;9.70;100.00
23164;BME280;31429;42.674;23.350;2023-04-20T03:40:03;94380.41;;;9.58;100.00
23164;BME280;31429;42.674;23.350;2023-04-20T03:41:06;94383.25;;;9.50;100.00
23164;BME280;31429;42.674;23.350;2023-04-20T03:42:07;94384.78;;;9.76;100.00
23164;BME280;31429;42.674;23.350;2023-04-20T03:43:08;94384.19;;;9.69;100.00
23164;BME280;31429;42.674;23.350;2023-04-20T03:44:08;94380.16;;;9.64;100.00
23164;BME280;31429;42.674;23.350;2023-04-20T03:45:10;94382.00;;;9.60;100.00
23164;BME280;31429;42.674;23.350;2023-04-20T03:46:11;94385.63;;;9.55;100.00
23164;BME280;31429;42.674;23.350;2023-04-20T03:47:11;94384.78;;;9.54;100.00
23164;BME280;31429;42.674;23.350;2023-04-20T03:48:12;94383.94;;;9.54;100.00
23164;BME280;31429;42.674;23.350;2023-04-20T03:49:13;94378.78;;;9.55;100.00
23164;BME280;31429;42.674;23.350;2023-04-20T03:50:13;94384.63;;;9.59;100.00
23164;BME280;31429;42.674;23.350;2023-04-20T03:51:14;94380.63;;;9.52;100.00
23164;BME280;31429;42.674;23.350;2023-04-20T03:52:15;94374.53;;;9.56;100.00
23164;BME280;31429;42.674;23.350;2023-04-20T03:53:15;94380.16;;;9.64;100.00
23164;BME280;31429;42.674;23.350;2023-04-20T03:54:16;94378.59;;;9.60;100.00
23164;BME280;31429;42.674;23.350;2023-04-20T03:55:18;94382.81;;;9.61;100.00
23164;BME280;31429;42.674;23.350;2023-04-20T03:56:19;94380.59;;;9.53;100.00
23164;BME280;31429;42.674;23.350;2023-04-20T03:57:19;94394.09;;;9.55;100.00
23164;BME280;31429;42.674;23.350;2023-04-20T03:58:20;94386.22;;;9.61;100.00
23164;BME280;31429;42.674;23.350;2023-04-20T03:59:21;94383.66;;;9.61;100.00
23164;BME280;31429;42.674;23.350;2023-04-20T04:00:21;94387.09;;;9.60;100.00
23164;BME280;31429;42.674;23.350;2023-04-20T04:01:22;94387.38;;;9.74;100.00
23164;BME280;31429;42.674;23.350;2023-04-20T04:02:23;94392.78;;;9.67;100.00
23164;BME280;31429;42.674;23.350;2023-04-20T04:03:24;94387.13;;;9.80;100.00
23164;BME280;31429;42.674;23.350;2023-04-20T04:04:24;94395.63;;;9.81;100.00
23164;BME280;31429;42.674;23.350;2023-04-20T04:05:25;94388.31;;;9.72;100.00
23164;BME280;31429;42.674;23.350;2023-04-20T04:06:26;94386.59;;;9.72;100.00
23164;BME280;31429;42.674;23.350;2023-04-20T04:07:27;94393.81;;;9.83;100.00
23164;BME280;31429;42.674;23.350;2023-04-20T04:08:28;94393.19;;;9.78;100.00
23164;BME280;31429;42.674;23.350;2023-04-20T04:09:28;94400.88;;;9.76;100.00
23164;BME280;31429;42.674;23.350;2023-04-20T04:10:31;94399.19;;;9.77;100.00
23164;BME280;31429;42.674;23.350;2023-04-20T04:11:31;94395.78;;;9.76;100.00
23164;BME280;31429;42.674;23.350;2023-04-20T04:12:32;94396.47;;;9.81;100.00
23164;BME280;31429;42.674;23.350;2023-04-20T04:13:32;94400.09;;;9.76;100.00
23164;BME280;31429;42.674;23.350;2023-04-20T04:14:33;94394.84;;;9.79;100.00
23164;BME280;31429;42.674;23.350;2023-04-20T04:15:34;94398.53;;;9.72;100.00
23164;BME280;31429;42.674;23.350;2023-04-20T04:16:35;94400.22;;;9.73;100.00
23164;BME280;31429;42.674;23.350;2023-04-20T04:17:35;94405.47;;;9.68;100.00
23164;BME280;31429;42.674;23.350;2023-04-20T04:18:36;94398.16;;;9.81;100.00
23164;BME280;31429;42.674;23.350;2023-04-20T04:19:37;94401.44;;;9.85;100.00
23164;BME280;31429;42.674;23.350;2023-04-20T04:20:38;94402.63;;;9.76;100.00
23164;BME280;31429;42.674;23.350;2023-04-20T04:21:38;94405.00;;;9.80;100.00
23164;BME280;31429;42.674;23.350;2023-04-20T04:22:39;94398.22;;;9.79;100.00
23164;BME280;31429;42.674;23.350;2023-04-20T04:23:40;94401.97;;;9.71;100.00
23164;BME280;31429;42.674;23.350;2023-04-20T04:24:41;94399.50;;;9.69;100.00
23164;BME280;31429;42.674;23.350;2023-04-20T04:25:44;94398.41;;;9.75;100.00
23164;BME280;31429;42.674;23.350;2023-04-20T04:26:45;94408.50;;;9.78;100.00
23164;BME280;31429;42.674;23.350;2023-04-20T04:27:46;94398.47;;;9.73;100.00
23164;BME280;31429;42.674;23.350;2023-04-20T04:28:47;94391.63;;;9.74;100.00
23164;BME280;31429;42.674;23.350;2023-04-20T04:29:48;94397.91;;;9.67;100.00
23164;BME280;31429;42.674;23.350;2023-04-20T04:30:49;94399.41;;;9.71;100.00
23164;BME280;31429;42.674;23.350;2023-04-20T04:31:51;94407.19;;;9.68;100.00
23164;BME280;31429;42.674;23.350;2023-04-20T04:32:51;94403.88;;;9.66;100.00
23164;BME280;31429;42.674;23.350;2023-04-20T04:33:52;94402.09;;;9.68;100.00
23164;BME280;31429;42.674;23.350;2023-04-20T04:34:53;94404.75;;;9.65;100.00
23164;BME280;31429;42.674;23.350;2023-04-20T04:35:54;94403.13;;;9.64;100.00
23164;BME280;31429;42.674;23.350;2023-04-20T04:36:55;94395.91;;;9.53;100.00
23164;BME280;31429;42.674;23.350;2023-04-20T04:37:56;94403.28;;;9.59;100.00
23164;BME280;31429;42.674;23.350;2023-04-20T04:38:56;94397.25;;;9.62;100.00
23164;BME280;31429;42.674;23.350;2023-04-20T04:39:57;94403.13;;;9.64;100.00
23164;BME280;31429;42.674;23.350;2023-04-20T04:40:59;94393.50;;;9.70;100.00
23164;BME280;31429;42.674;23.350;2023-04-20T04:42:00;94403.53;;;9.75;100.00
23164;BME280;31429;42.674;23.350;2023-04-20T04:43:01;94405.34;;;9.71;100.00
23164;BME280;31429;42.674;23.350;2023-04-20T04:44:02;94402.38;;;9.62;100.00
23164;BME280;31429;42.674;23.350;2023-04-20T04:45:03;94404.84;;;9.63;100.00
23164;BME280;31429;42.674;23.350;2023-04-20T04:46:08;94404.91;;;9.62;100.00
23164;BME280;31429;42.674;23.350;2023-04-20T04:47:12;94414.03;;;9.67;100.00
23164;BME280;31429;42.674;23.350;2023-04-20T04:48:13;94407.16;;;9.69;100.00
23164;BME280;31429;42.674;23.350;2023-04-20T04:49:14;94410.72;;;10.07;100.00
23164;BME280;31429;42.674;23.350;2023-04-20T04:50:15;94410.91;;;10.23;100.00
23164;BME280;31429;42.674;23.350;2023-04-20T04:51:16;94420.75;;;10.32;100.00
23164;BME280;31429;42.674;23.350;2023-04-20T04:52:17;94420.72;;;10.12;100.00
23164;BME280;31429;42.674;23.350;2023-04-20T04:53:17;94419.59;;;9.99;100.00
23164;BME280;31429;42.674;23.350;2023-04-20T04:54:18;94421.31;;;9.98;100.00
23164;BME280;31429;42.674;23.350;2023-04-20T04:55:18;94425.69;;;9.95;100.00
23164;BME280;31429;42.674;23.350;2023-04-20T04:56:21;94417.28;;;9.93;100.00
23164;BME280;31429;42.674;23.350;2023-04-20T04:57:22;94424.03;;;10.15;100.00
23164;BME280;31429;42.674;23.350;2023-04-20T04:58:23;94424.16;;;10.11;100.00
23164;BME280;31429;42.674;23.350;2023-04-20T04:59:24;94417.19;;;10.16;100.00
23164;BME280;31429;42.674;23.350;2023-04-20T05:00:25;94413.94;;;10.11;100.00
23164;BME280;31429;42.674;23.350;2023-04-20T05:01:25;94425.78;;;9.93;100.00
23164;BME280;31429;42.674;23.350;2023-04-20T05:02:26;94426.38;;;10.20;100.00
23164;BME280;31429;42.674;23.350;2023-04-20T05:03:26;94423.91;;;10.18;100.00
23164;BME280;31429;42.674;23.350;2023-04-20T05:04:27;94424.91;;;10.14;100.00
23164;BME280;31429;42.674;23.350;2023-04-20T05:05:28;94428.22;;;10.16;100.00
23164;BME280;31429;42.674;23.350;2023-04-20T05:06:29;94427.53;;;10.13;100.00
23164;BME280;31429;42.674;23.350;2023-04-20T05:07:30;94432.66;;;10.13;100.00
23164;BME280;31429;42.674;23.350;2023-04-20T05:08:30;94430.34;;;10.05;100.00
23164;BME280;31429;42.674;23.350;2023-04-20T05:09:31;94426.13;;;10.26;100.00
23164;BME280;31429;42.674;23.350;2023-04-20T05:10:33;94431.72;;;10.14;100.00
23164;BME280;31429;42.674;23.350;2023-04-20T05:11:35;94424.03;;;10.15;100.00
23164;BME280;31429;42.674;23.350;2023-04-20T05:12:36;94421.78;;;10.28;100.00
23164;BME280;31429;42.674;23.350;2023-04-20T05:13:36;94429.25;;;10.32;100.00
23164;BME280;31429;42.674;23.350;2023-04-20T05:14:37;94427.09;;;10.44;100.00
23164;BME280;31429;42.674;23.350;2023-04-20T05:15:38;94425.25;;;10.66;100.00
23164;BME280;31429;42.674;23.350;2023-04-20T05:16:38;94421.34;;;10.77;100.00
23164;BME280;31429;42.674;23.350;2023-04-20T05:17:39;94425.19;;;10.67;100.00